Time;durP1;ratioP1;P1;durP2;ratioP2;P2;SDS_P1;SDS_P2;PMS_P1;PMS_P2;Temp;Humidity;BMP_temperature;BMP_pressure;BME280_temperature;BME280_humidity;BME280_pressure;Samples;Min_cycle;Max_cycle;Signal;HPM_P1;HPM_P2
2023/02/13 00:01:13;;;;;;;;;;;;;;;1.58;100.00;98317.00;5093722;28;19957;-77
2023/02/13 00:03:39;;;;;;;;;;;;;;;1.56;100.00;98310.28;5094151;28;19953;-77
2023/02/13 00:06:04;;;;;;;;;;;;;;;1.54;100.00;98312.19;5093496;28;20006;-77
2023/02/13 00:08:30;;;;;;;;;;;;;;;1.51;100.00;98307.22;5093502;28;20045;-77
2023/02/13 00:10:56;;;;;;;;;;;;;;;1.45;100.00;98308.53;5093785;28;20043;-77
2023/02/13 00:13:22;;;;;;;;;;;;;;;1.40;100.00;98308.84;5093746;28;20306;-77
2023/02/13 00:15:55;;;;;;;;;;;;;;;1.37;100.00;98316.03;5093028;28;20335;-76
2023/02/13 00:18:21;;;;;;;;;;;;;;;1.31;100.00;98306.94;5093347;28;20323;-77
2023/02/13 00:20:55;;;;;;;;;;;;;;;1.27;100.00;98304.72;5075809;28;19957;-78
2023/02/13 00:23:21;;;;;;;;;;;;;;;1.23;100.00;98313.63;5094006;28;19958;-78
2023/02/13 00:25:47;;;;;;;;;;;;;;;1.16;100.00;98308.09;5093322;28;19954;-79
2023/02/13 00:28:13;;;;;;;;;;;;;;;1.12;100.00;98311.81;5075419;28;19966;-78
2023/02/13 00:30:39;;;;;;;;;;;;;;;1.10;100.00;98299.00;5093294;28;19953;-79
2023/02/13 00:33:05;;;;;;;;;;;;;;;1.07;100.00;98304.41;5093541;28;20373;-78
2023/02/13 00:35:30;;;;;;;;;;;;;;;1.05;100.00;98314.03;5093246;28;19980;-77
2023/02/13 00:37:56;;;;;;;;;;;;;;;1.04;100.00;98314.97;5096554;28;19962;-77
2023/02/13 00:40:22;;;;;;;;;;;;;;;1.02;100.00;98312.47;5097409;28;19949;-77
2023/02/13 00:42:48;;;;;;;;;;;;;;;1.00;100.00;98308.38;5087064;28;19982;-76
2023/02/13 00:45:14;;;;;;;;;;;;;;;0.96;100.00;98312.09;5097441;28;19958;-77
2023/02/13 00:47:40;;;;;;;;;;;;;;;0.94;100.00;98316.56;5097597;28;20037;-77
2023/02/13 00:50:06;;;;;;;;;;;;;;;0.91;100.00;98309.84;5097212;28;19989;-77
2023/02/13 00:52:32;;;;;;;;;;;;;;;0.89;100.00;98319.47;5079239;28;19953;-76
2023/02/13 00:54:57;;;;;;;;;;;;;;;0.88;100.00;98307.47;5079054;28;19953;-77
2023/02/13 00:57:23;;;;;;;;;;;;;;;0.85;100.00;98312.06;5062203;28;19950;-76
2023/02/13 00:59:49;;;;;;;;;;;;;;;0.83;100.00;98312.16;5097047;28;19951;-79
2023/02/13 01:02:15;;;;;;;;;;;;;;;0.79;100.00;98310.75;5066762;28;20331;-79
2023/02/13 01:04:41;;;;;;;;;;;;;;;0.75;100.00;98310.13;5097243;28;19964;-80
2023/02/13 01:07:07;;;;;;;;;;;;;;;0.73;100.00;98312.00;5096764;28;20010;-76
2023/02/13 01:09:33;;;;;;;;;;;;;;;0.71;100.00;98307.88;5096780;28;20042;-77
2023/02/13 01:11:58;;;;;;;;;;;;;;;0.69;100.00;98307.97;5078950;28;20375;-77
2023/02/13 01:14:24;;;;;;;;;;;;;;;0.65;100.00;98309.16;5078724;28;19959;-77
2023/02/13 01:16:50;;;;;;;;;;;;;;;0.64;100.00;98304.91;5096780;28;19952;-76
2023/02/13 01:19:16;;;;;;;;;;;;;;;0.62;100.00;98301.63;5096809;28;19955;-76
2023/02/13 01:21:42;;;;;;;;;;;;;;;0.60;100.00;98306.88;5096787;28;20043;-76
2023/02/13 01:24:09;;;;;;;;;;;;;;;0.58;100.00;98295.03;5096650;28;19948;-76
2023/02/13 01:26:35;;;;;;;;;;;;;;;0.56;100.00;98289.13;5096821;28;19948;-76
2023/02/13 01:29:00;;;;;;;;;;;;;;;0.54;100.00;98296.97;5096724;28;19991;-76
2023/02/13 01:31:26;;;;;;;;;;;;;;;0.53;100.00;98295.34;5096385;28;19952;-76
2023/02/13 01:33:54;;;;;;;;;;;;;;;0.52;100.00;98292.88;5096796;28;19953;-76
2023/02/13 01:36:20;;;;;;;;;;;;;;;0.51;100.00;98286.88;5096415;28;19949;-78
2023/02/13 01:38:46;;;;;;;;;;;;;;;0.50;100.00;98284.41;5078195;28;20376;-76
2023/02/13 01:41:14;;;;;;;;;;;;;;;0.48;100.00;98283.69;5096887;28;20407;-76
2023/02/13 01:43:44;;;;;;;;;;;;;;;0.46;100.00;98285.56;5096555;28;19973;-76
2023/02/13 01:46:11;;;;;;;;;;;;;;;0.45;100.00;98291.66;5096615;28;19957;-77
2023/02/13 01:48:37;;;;;;;;;;;;;;;0.44;100.00;98290.00;5096467;28;19969;-77
2023/02/13 01:51:06;;;;;;;;;;;;;;;0.43;100.00;98291.78;5096367;28;20393;-76
2023/02/13 01:53:37;;;;;;;;;;;;;;;0.40;100.00;98287.66;5096005;28;19962;-76
2023/02/13 01:56:29;;;;;;;;;;;;;;;0.39;100.00;98283.41;5096297;28;19952;-77
2023/02/13 01:58:58;;;;;;;;;;;;;;;0.34;100.00;98279.53;5086219;28;19945;-76
2023/02/13 02:01:25;;;;;;;;;;;;;;;0.33;100.00;98285.59;5095954;28;20412;-76
2023/02/13 02:03:51;;;;;;;;;;;;;;;0.31;100.00;98284.88;5095942;28;19949;-76
2023/02/13 02:06:24;;;;;;;;;;;;;;;0.30;100.00;98294.41;5095725;28;20384;-76
2023/02/13 02:08:53;;;;;;;;;;;;;;;0.29;100.00;98291.91;5095665;28;20429;-77
2023/02/13 02:11:27;;;;;;;;;;;;;;;0.29;100.00;98292.72;5095924;28;19951;-77
2023/02/13 02:13:53;;;;;;;;;;;;;;;0.28;100.00;98291.09;5096060;28;19970;-76
2023/02/13 02:16:19;;;;;;;;;;;;;;;0.27;100.00;98298.94;5095796;28;20042;-76
2023/02/13 02:18:45;;;;;;;;;;;;;;;0.25;100.00;98287.91;5095633;28;19988;-77
2023/02/13 02:21:29;;;;;;;;;;;;;;;0.26;100.00;98284.41;5096189;28;20036;-76
2023/02/13 02:24:18;;;;;;;;;;;;;;;0.24;100.00;98294.00;5070346;28;19949;-77
2023/02/13 02:26:44;;;;;;;;;;;;;;;0.23;100.00;98282.84;5094832;28;19968;-77
2023/02/13 02:29:22;;;;;;;;;;;;;;;0.24;100.00;98288.84;5077165;28;19966;-77
2023/02/13 02:32:07;;;;;;;;;;;;;;;0.26;100.00;98286.97;5095595;28;19951;-77
2023/02/13 02:34:41;;;;;;;;;;;;;;;0.26;100.00;98285.22;5095268;28;19957;-77
2023/02/13 02:37:23;;;;;;;;;;;;;;;0.26;100.00;98276.66;5095264;28;19946;-77
2023/02/13 02:40:15;;;;;;;;;;;;;;;0.27;100.00;98283.44;5095102;28;19949;-77
2023/02/13 02:42:59;;;;;;;;;;;;;;;0.26;100.00;98284.41;5076350;28;19979;-77
2023/02/13 02:45:29;;;;;;;;;;;;;;;0.25;100.00;98293.06;5080676;28;20335;-77
2023/02/13 02:50:53;;;;;;;;;;;;;;;0.20;100.00;98294.19;5095360;28;19969;-75
2023/02/13 02:53:22;;;;;;;;;;;;;;;0.18;100.00;98293.47;5094949;28;20419;-77
2023/02/13 02:55:59;;;;;;;;;;;;;;;0.20;100.00;98294.19;5076542;28;19949;-76
2023/02/13 03:07:13;;;;;;;;;;;;;;;0.19;100.00;98297.72;5094946;28;19941;-76
2023/02/13 03:15:15;;;;;;;;;;;;;;;0.17;100.00;98291.03;5076639;28;19956;-75
2023/02/13 03:23:24;;;;;;;;;;;;;;;0.15;100.00;98292.91;5076843;28;20398;-77
2023/02/13 03:26:09;;;;;;;;;;;;;;;0.12;100.00;98291.31;5059387;28;19944;-77
2023/02/13 03:31:40;;;;;;;;;;;;;;;0.09;100.00;98285.56;5094211;28;20396;-78
2023/02/13 03:34:12;;;;;;;;;;;;;;;0.09;100.00;98296.72;5094257;28;19959;-77
2023/02/13 03:40:04;;;;;;;;;;;;;;;0.05;100.00;98290.13;5093958;28;19951;-77
2023/02/13 03:42:35;;;;;;;;;;;;;;;0.05;100.00;98292.69;5094777;28;19974;-76
2023/02/13 03:47:52;;;;;;;;;;;;;;;0.02;100.00;98292.88;5085907;28;19958;-77
2023/02/13 03:50:18;;;;;;;;;;;;;;;0.00;100.00;98292.19;5093759;28;19967;-76
2023/02/13 03:52:44;;;;;;;;;;;;;;;-0.02;100.00;98305.19;5094081;28;19961;-76
2023/02/13 04:00:53;;;;;;;;;;;;;;;-0.09;100.00;98303.94;5094205;28;19957;-78
2023/02/13 04:03:25;;;;;;;;;;;;;;;-0.13;100.00;98307.66;5063832;28;19943;-76
2023/02/13 04:06:03;;;;;;;;;;;;;;;-0.14;100.00;98320.69;5093645;28;20014;-76
2023/02/13 04:08:29;;;;;;;;;;;;;;;-0.16;100.00;98325.13;5093848;28;20293;-76
2023/02/13 04:11:15;;;;;;;;;;;;;;;-0.19;100.00;98323.56;5092960;28;19978;-78
2023/02/13 04:13:45;;;;;;;;;;;;;;;-0.22;100.00;98328.94;5075164;28;19956;-77
2023/02/13 04:16:15;;;;;;;;;;;;;;;-0.25;100.00;98324.81;5093745;28;20054;-77
2023/02/13 04:18:42;;;;;;;;;;;;;;;-0.26;100.00;98332.63;5093508;28;19960;-77
2023/02/13 04:21:08;;;;;;;;;;;;;;;-0.29;100.00;98330.28;5093581;28;19959;-77
2023/02/13 04:23:34;;;;;;;;;;;;;;;-0.29;100.00;98333.69;5075327;28;19948;-77
2023/02/13 04:26:02;;;;;;;;;;;;;;;-0.31;100.00;98335.53;5093336;28;20425;-77
2023/02/13 04:28:28;;;;;;;;;;;;;;;-0.31;100.00;98339.88;5093995;28;19950;-77
2023/02/13 04:30:54;;;;;;;;;;;;;;;-0.33;100.00;98346.88;5093548;28;19967;-77
2023/02/13 04:33:20;;;;;;;;;;;;;;;-0.35;100.00;98339.25;5093458;28;20414;-77
2023/02/13 04:35:46;;;;;;;;;;;;;;;-0.36;100.00;98347.06;5093374;28;20046;-78
2023/02/13 04:38:11;;;;;;;;;;;;;;;-0.41;100.00;98340.47;5093223;28;19958;-77
2023/02/13 04:40:37;;;;;;;;;;;;;;;-0.42;100.00;98337.97;5093430;28;20335;-77
2023/02/13 04:43:03;;;;;;;;;;;;;;;-0.44;100.00;98335.53;5093251;28;20387;-78
2023/02/13 04:45:29;;;;;;;;;;;;;;;-0.46;100.00;98341.72;5075245;28;19953;-77
2023/02/13 04:47:56;;;;;;;;;;;;;;;-0.47;100.00;98332.31;5075175;28;19951;-77
2023/02/13 04:50:22;;;;;;;;;;;;;;;-0.49;100.00;98334.16;5093269;28;19963;-77
2023/02/13 04:52:53;;;;;;;;;;;;;;;-0.51;100.00;98336.84;5093241;28;19964;-77
2023/02/13 04:55:19;;;;;;;;;;;;;;;-0.54;100.00;98329.31;5093047;28;19950;-76
2023/02/13 04:57:45;;;;;;;;;;;;;;;-0.54;100.00;98331.09;5093071;28;20005;-77
2023/02/13 05:00:11;;;;;;;;;;;;;;;-0.56;100.00;98331.19;5093294;28;19992;-76
2023/02/13 05:02:36;;;;;;;;;;;;;;;-0.58;100.00;98324.47;5092990;28;19943;-76
2023/02/13 05:05:03;;;;;;;;;;;;;;;-0.60;100.00;98329.72;5093227;28;20036;-76
2023/02/13 05:07:28;;;;;;;;;;;;;;;-0.62;100.00;98329.00;5093599;28;19955;-76
2023/02/13 05:09:54;;;;;;;;;;;;;;;-0.64;100.00;98326.53;5093081;28;19968;-76
2023/02/13 05:12:20;;;;;;;;;;;;;;;-0.66;100.00;98335.28;5074751;28;19946;-76
2023/02/13 05:14:46;;;;;;;;;;;;;;;-0.69;100.00;98330.34;5075078;28;19964;-76
2023/02/13 05:17:12;;;;;;;;;;;;;;;-0.71;100.00;98330.44;5093168;28;19995;-76
2023/02/13 05:19:38;;;;;;;;;;;;;;;-0.72;100.00;98335.69;5093323;28;19993;-76
2023/02/13 05:24:48;;;;;;;;;;;;;;;-0.73;100.00;98336.63;5078475;28;19957;-76
2023/02/13 05:27:14;;;;;;;;;;;;;;;-0.74;100.00;98343.50;5078520;28;20410;-77
2023/02/13 05:29:40;;;;;;;;;;;;;;;-0.75;100.00;98343.63;5096800;28;20011;-76
2023/02/13 05:32:06;;;;;;;;;;;;;;;-0.79;100.00;98345.56;5096468;28;19987;-76
2023/02/13 05:34:31;;;;;;;;;;;;;;;-0.83;100.00;98336.38;5096777;28;19955;-76
2023/02/13 05:36:57;;;;;;;;;;;;;;;-0.88;100.00;98338.44;5096287;28;19946;-76
2023/02/13 05:39:23;;;;;;;;;;;;;;;-0.94;100.00;98337.09;5078355;28;19950;-76
2023/02/13 05:41:49;;;;;;;;;;;;;;;-0.96;100.00;98338.13;5078099;28;19997;-76
2023/02/13 05:44:15;;;;;;;;;;;;;;;-0.98;100.00;98337.38;5096412;28;19950;-76
2023/02/13 05:46:42;;;;;;;;;;;;;;;-0.99;100.00;98338.28;5096162;28;19958;-76
2023/02/13 05:49:09;;;;;;;;;;;;;;;-0.99;100.00;98338.28;5096582;28;19969;-76
2023/02/13 05:51:35;;;;;;;;;;;;;;;-0.98;100.00;98347.69;5096039;28;19950;-76
2023/02/13 05:54:01;;;;;;;;;;;;;;;-1.00;100.00;98344.38;5096102;28;19942;-76
2023/02/13 05:56:27;;;;;;;;;;;;;;;-1.05;100.00;98335.19;5096224;28;20033;-76
2023/02/13 05:58:53;;;;;;;;;;;;;;;-1.09;100.00;98344.03;5096045;28;19957;-77
2023/02/13 06:01:19;;;;;;;;;;;;;;;-1.10;100.00;98346.72;5095995;28;19943;-76
2023/02/13 06:03:45;;;;;;;;;;;;;;;-1.11;100.00;98351.03;5096011;28;19959;-76
2023/02/13 06:06:11;;;;;;;;;;;;;;;-1.12;100.00;98348.56;5096320;28;19958;-76
2023/02/13 06:08:37;;;;;;;;;;;;;;;-1.14;100.00;98351.22;5096094;28;20425;-76
2023/02/13 06:11:03;;;;;;;;;;;;;;;-1.14;100.00;98356.38;5095555;28;20306;-76
2023/02/13 06:13:29;;;;;;;;;;;;;;;-1.12;100.00;98349.38;5095353;28;19952;-77
2023/02/13 06:15:55;;;;;;;;;;;;;;;-1.09;100.00;98348.34;5095600;28;19952;-76
2023/02/13 06:18:21;;;;;;;;;;;;;;;-1.09;100.00;98345.75;5077880;28;19998;-77
2023/02/13 06:20:47;;;;;;;;;;;;;;;-1.08;100.00;98350.00;5060918;28;19951;-76
2023/02/13 06:23:13;;;;;;;;;;;;;;;-1.15;100.00;98362.44;5095611;28;20047;-77
2023/02/13 06:25:39;;;;;;;;;;;;;;;-1.21;100.00;98357.69;5095547;28;19955;-76
2023/02/13 06:28:05;;;;;;;;;;;;;;;-1.21;100.00;98360.25;5095294;28;19998;-76
2023/02/13 06:30:31;;;;;;;;;;;;;;;-1.20;100.00;98364.47;5095522;28;20028;-76
2023/02/13 06:32:57;;;;;;;;;;;;;;;-1.18;100.00;98357.47;5095127;28;19949;-76
2023/02/13 06:35:23;;;;;;;;;;;;;;;-1.16;100.00;98357.38;5094430;28;19950;-76
2023/02/13 06:37:49;;;;;;;;;;;;;;;-1.14;100.00;98363.28;5095274;28;19946;-76
2023/02/13 06:40:16;;;;;;;;;;;;;;;-1.16;100.00;98363.34;5095037;28;19955;-76
2023/02/13 06:42:42;;;;;;;;;;;;;;;-1.15;100.00;98365.03;5095128;28;19971;-77
2023/02/13 06:45:09;;;;;;;;;;;;;;;-1.14;100.00;98358.13;5094925;28;19957;-78
2023/02/13 06:47:34;;;;;;;;;;;;;;;-1.13;100.00;98367.50;5077518;28;19963;-77
2023/02/13 06:50:00;;;;;;;;;;;;;;;-1.15;100.00;98364.22;5094889;28;20023;-77
2023/02/13 06:52:26;;;;;;;;;;;;;;;-1.16;100.00;98368.50;5095302;28;20054;-77
2023/02/13 06:54:52;;;;;;;;;;;;;;;-1.16;100.00;98375.41;5095207;28;19961;-78
2023/02/13 06:57:18;;;;;;;;;;;;;;;-1.16;100.00;98370.25;5094801;28;20061;-77
2023/02/13 06:59:44;;;;;;;;;;;;;;;-1.16;100.00;98373.66;5094783;28;19951;-78
2023/02/13 07:02:10;;;;;;;;;;;;;;;-1.15;100.00;98367.59;5094754;28;20079;-77
2023/02/13 07:04:36;;;;;;;;;;;;;;;-1.12;100.00;98371.72;5094609;28;19961;-77
2023/02/13 07:07:02;;;;;;;;;;;;;;;-1.16;100.00;98372.84;5094653;28;20127;-78
2023/02/13 07:09:29;;;;;;;;;;;;;;;-1.20;100.00;98369.63;5094637;28;19961;-78
2023/02/13 07:11:55;;;;;;;;;;;;;;;-1.24;100.00;98374.16;5094483;28;20452;-78
2023/02/13 07:14:21;;;;;;;;;;;;;;;-1.25;100.00;98372.50;5060148;28;19957;-77
2023/02/13 07:16:47;;;;;;;;;;;;;;;-1.29;100.00;98377.94;5076335;28;19981;-77
2023/02/13 07:19:12;;;;;;;;;;;;;;;-1.23;100.00;98386.09;5094593;28;19954;-78
2023/02/13 07:21:38;;;;;;;;;;;;;;;-0.94;100.00;98368.00;5076421;28;19947;-77
2023/02/13 07:24:04;;;;;;;;;;;;;;;-0.48;100.00;98371.91;5094386;28;20007;-77
2023/02/13 07:26:30;;;;;;;;;;;;;;;-0.05;99.76;98364.72;5094369;28;19958;-77
2023/02/13 07:28:56;;;;;;;;;;;;;;;0.32;97.01;98357.06;5094185;28;20355;-77
2023/02/13 07:31:22;;;;;;;;;;;;;;;0.34;95.99;98354.38;5094333;28;19970;-77
2023/02/13 07:33:48;;;;;;;;;;;;;;;0.22;95.60;98356.03;5093874;28;19955;-77
2023/02/13 07:36:14;;;;;;;;;;;;;;;0.04;95.33;98355.53;5094205;28;19954;-77
2023/02/13 07:38:40;;;;;;;;;;;;;;;-0.14;96.52;98367.91;5094175;28;19954;-78
2023/02/13 07:41:06;;;;;;;;;;;;;;;-0.30;96.56;98362.13;5076260;28;19992;-78
2023/02/13 07:43:32;;;;;;;;;;;;;;;-0.48;96.48;98367.59;5075553;28;19977;-77
2023/02/13 07:45:59;;;;;;;;;;;;;;;-0.58;97.88;98376.03;5094090;28;20303;-78
2023/02/13 07:48:28;;;;;;;;;;;;;;;-0.67;98.16;98382.59;5076231;28;19953;-78
2023/02/13 07:50:54;;;;;;;;;;;;;;;-0.80;98.13;98377.38;5093862;28;19963;-77
2023/02/13 07:53:21;;;;;;;;;;;;;;;-0.90;99.52;98386.66;5093972;28;19947;-77
2023/02/13 07:55:47;;;;;;;;;;;;;;;-0.94;99.94;98386.03;5075703;28;19957;-77
2023/02/13 07:58:13;;;;;;;;;;;;;;;-1.00;100.00;98390.72;5075632;28;19953;-76
2023/02/13 08:00:39;;;;;;;;;;;;;;;-1.07;100.00;98393.69;5094004;28;19959;-77
2023/02/13 08:03:04;;;;;;;;;;;;;;;-1.20;100.00;98407.41;5093631;28;19954;-77
2023/02/13 08:05:31;;;;;;;;;;;;;;;-1.23;100.00;98405.88;5093716;28;19969;-78
2023/02/13 08:07:57;;;;;;;;;;;;;;;-1.32;100.00;98412.41;5093874;28;19957;-77
2023/02/13 08:13:08;;;;;;;;;;;;;;;-1.51;100.00;98414.44;5093871;28;20315;-77
2023/02/13 08:15:34;;;;;;;;;;;;;;;-1.63;100.00;98421.19;5093777;28;19980;-77
2023/02/13 08:18:00;;;;;;;;;;;;;;;-1.68;100.00;98415.47;5075651;28;20406;-76
2023/02/13 08:20:26;;;;;;;;;;;;;;;-1.73;100.00;98417.50;5075720;28;20306;-77
2023/02/13 08:22:51;;;;;;;;;;;;;;;-1.77;100.00;98416.03;5093421;28;19952;-78
2023/02/13 08:25:18;;;;;;;;;;;;;;;-1.73;100.00;98415.75;5093671;28;19955;-77
2023/02/13 08:27:45;;;;;;;;;;;;;;;-1.60;100.00;98415.84;5093534;28;20320;-77
2023/02/13 08:30:11;;;;;;;;;;;;;;;-1.51;100.00;98412.72;5093557;28;19961;-77
2023/02/13 08:32:37;;;;;;;;;;;;;;;-1.41;100.00;98415.53;5093470;28;20395;-77
2023/02/13 08:35:03;;;;;;;;;;;;;;;-1.34;100.00;98411.69;5075539;28;19955;-76
2023/02/13 08:37:29;;;;;;;;;;;;;;;-1.31;100.00;98405.50;5093248;28;19945;-77
2023/02/13 08:39:55;;;;;;;;;;;;;;;-1.28;100.00;98408.72;5093456;28;20361;-77
2023/02/13 08:42:21;;;;;;;;;;;;;;;-1.26;100.00;98403.47;5093306;28;20316;-76
2023/02/13 08:44:46;;;;;;;;;;;;;;;-1.26;100.00;98404.31;5093305;28;19960;-76
2023/02/13 08:47:12;;;;;;;;;;;;;;;-1.23;100.00;98405.88;5093311;28;20451;-76
2023/02/13 08:49:38;;;;;;;;;;;;;;;-1.21;100.00;98404.03;5093198;28;19953;-77
2023/02/13 08:52:04;;;;;;;;;;;;;;;-1.19;100.00;98403.94;5093477;28;20070;-76
2023/02/13 08:54:32;;;;;;;;;;;;;;;-1.16;100.00;98403.72;5093086;28;19952;-76
2023/02/13 08:56:58;;;;;;;;;;;;;;;-1.12;100.00;98400.88;5093102;28;20409;-76
2023/02/13 08:59:24;;;;;;;;;;;;;;;-1.06;100.00;98391.94;5096875;28;19957;-77
2023/02/13 09:01:49;;;;;;;;;;;;;;;-0.99;100.00;98392.38;5097126;28;19951;-76
2023/02/13 09:04:17;;;;;;;;;;;;;;;-0.95;100.00;98386.94;5078907;28;20031;-77
2023/02/13 09:06:43;;;;;;;;;;;;;;;-0.88;100.00;98392.53;5097090;28;19956;-76
2023/02/13 09:09:09;;;;;;;;;;;;;;;-0.82;100.00;98384.38;5096859;28;19944;-76
2023/02/13 09:11:35;;;;;;;;;;;;;;;-0.73;100.00;98385.56;5097096;28;19966;-76
2023/02/13 09:14:01;;;;;;;;;;;;;;;-0.66;100.00;98386.81;5096808;28;19957;-76
2023/02/13 09:16:27;;;;;;;;;;;;;;;-0.62;100.00;98376.22;5097088;28;19957;-76
2023/02/13 09:18:52;;;;;;;;;;;;;;;-0.53;100.00;98381.69;5096914;28;19958;-76
2023/02/13 09:21:20;;;;;;;;;;;;;;;-0.44;100.00;98374.19;5096590;28;19948;-76
2023/02/13 09:23:45;;;;;;;;;;;;;;;-0.37;100.00;98377.19;5097027;28;19955;-76
2023/02/13 09:26:13;;;;;;;;;;;;;;;-0.30;100.00;98381.00;5079380;28;20005;-76
2023/02/13 09:28:39;;;;;;;;;;;;;;;-0.27;100.00;98373.06;5096906;28;20419;-76
2023/02/13 09:31:09;;;;;;;;;;;;;;;-0.23;100.00;98384.03;5096657;28;19967;-76
2023/02/13 09:33:35;;;;;;;;;;;;;;;-0.19;100.00;98384.63;5096746;28;19952;-76
2023/02/13 09:36:05;;;;;;;;;;;;;;;-0.19;100.00;98382.03;5097215;28;19953;-76
2023/02/13 09:38:31;;;;;;;;;;;;;;;-0.13;100.00;98377.28;5096807;28;19956;-76
2023/02/13 09:40:59;;;;;;;;;;;;;;;-0.10;100.00;98391.75;5096696;28;20410;-76
2023/02/13 09:43:35;;;;;;;;;;;;;;;-0.12;100.00;98386.69;5078158;28;20476;-76
2023/02/13 09:46:06;;;;;;;;;;;;;;;-0.15;100.00;98383.50;5096472;28;19945;-76
2023/02/13 09:48:35;;;;;;;;;;;;;;;-0.13;100.00;98386.78;5096442;28;19963;-76
2023/02/13 09:51:01;;;;;;;;;;;;;;;-0.09;100.00;98386.47;5096547;28;19964;-76
2023/02/13 09:53:28;;;;;;;;;;;;;;;0.01;100.00;98385.88;5096786;28;19958;-76
2023/02/13 09:55:59;;;;;;;;;;;;;;;0.02;100.00;98382.34;5096558;28;20324;-76
2023/02/13 09:58:37;;;;;;;;;;;;;;;0.02;100.00;98385.75;5096529;28;19952;-76
2023/02/13 10:01:04;;;;;;;;;;;;;;;0.04;100.00;98385.66;5096253;28;20328;-76
2023/02/13 10:03:42;;;;;;;;;;;;;;;0.08;100.00;98381.94;5096184;28;19954;-76
2023/02/13 10:06:29;;;;;;;;;;;;;;;0.14;100.00;98386.69;5096191;28;19945;-76
2023/02/13 10:09:12;;;;;;;;;;;;;;;0.19;100.00;98400.13;5095208;28;19955;-76
2023/02/13 10:11:38;;;;;;;;;;;;;;;0.27;100.00;98391.84;5078523;28;20431;-75
2023/02/13 10:14:10;;;;;;;;;;;;;;;0.34;100.00;98393.91;5095874;28;19973;-75
2023/02/13 10:16:36;;;;;;;;;;;;;;;0.47;100.00;98387.91;5095824;28;19953;-76
2023/02/13 10:19:02;;;;;;;;;;;;;;;0.58;100.00;98387.97;5096078;28;20400;-75
2023/02/13 10:21:33;;;;;;;;;;;;;;;0.69;100.00;98392.38;5095965;28;20412;-75
2023/02/13 10:24:05;;;;;;;;;;;;;;;0.68;100.00;98390.75;5095697;28;19966;-75
2023/02/13 10:26:41;;;;;;;;;;;;;;;0.73;100.00;98388.66;5095870;28;19965;-76
2023/02/13 10:32:08;;;;;;;;;;;;;;;0.98;100.00;98380.81;5095576;28;19963;-76
2023/02/13 10:34:37;;;;;;;;;;;;;;;1.08;100.00;98387.91;5095670;28;19945;-75
2023/02/13 10:37:08;;;;;;;;;;;;;;;1.11;100.00;98391.09;5095533;28;19948;-75
2023/02/13 10:39:34;;;;;;;;;;;;;;;1.15;100.00;98384.75;5095608;28;19944;-75
2023/02/13 10:42:00;;;;;;;;;;;;;;;1.21;100.00;98386.91;5095485;28;20462;-75
2023/02/13 10:44:33;;;;;;;;;;;;;;;1.28;100.00;98384.72;5095569;28;19946;-76
2023/02/13 10:47:09;;;;;;;;;;;;;;;1.32;100.00;98393.06;5094885;28;19954;-76
2023/02/13 10:49:35;;;;;;;;;;;;;;;1.35;100.00;98385.91;5077685;28;20344;-75
2023/02/13 10:52:21;;;;;;;;;;;;;;;1.37;100.00;98386.63;5077208;28;19960;-76
2023/02/13 10:55:01;;;;;;;;;;;;;;;1.35;100.00;98385.91;5095388;28;19953;-76
2023/02/13 10:57:27;;;;;;;;;;;;;;;1.32;100.00;98383.53;5095224;28;19967;-76
2023/02/13 10:59:55;;;;;;;;;;;;;;;1.25;100.00;98379.75;5095706;28;20416;-76
2023/02/13 11:02:23;;;;;;;;;;;;;;;1.21;100.00;98379.16;5095204;28;19947;-76
2023/02/13 11:04:51;;;;;;;;;;;;;;;1.25;100.00;98381.53;5094878;28;20324;-76
2023/02/13 11:07:18;;;;;;;;;;;;;;;1.23;100.00;98380.81;5077108;28;19945;-77
2023/02/13 11:09:46;;;;;;;;;;;;;;;1.31;100.00;98375.91;5095054;28;19953;-76
2023/02/13 11:12:29;;;;;;;;;;;;;;;1.44;100.00;98368.91;5094833;28;20332;-77
2023/02/13 11:14:55;;;;;;;;;;;;;;;1.60;100.00;98378.97;5076810;28;19957;-76
2023/02/13 11:17:22;;;;;;;;;;;;;;;1.66;100.00;98375.06;5077024;28;19949;-76
2023/02/13 11:19:52;;;;;;;;;;;;;;;1.71;100.00;98362.63;5094767;28;20296;-76
2023/02/13 11:22:36;;;;;;;;;;;;;;;1.78;100.00;98362.03;5094233;28;20317;-76
2023/02/13 11:25:15;;;;;;;;;;;;;;;1.93;100.00;98365.28;5094494;28;20300;-76
2023/02/13 11:27:41;;;;;;;;;;;;;;;2.04;100.00;98354.09;5094589;28;19953;-76
2023/02/13 11:30:30;;;;;;;;;;;;;;;2.09;100.00;98348.56;5076403;28;19954;-76
2023/02/13 11:33:16;;;;;;;;;;;;;;;2.19;100.00;98363.28;5083753;28;19948;-76
2023/02/13 11:35:43;;;;;;;;;;;;;;;2.78;100.00;98359.56;5094710;28;20012;-77
2023/02/13 11:38:09;;;;;;;;;;;;;;;2.88;100.00;98357.06;5094637;28;19949;-76
2023/02/13 11:40:35;;;;;;;;;;;;;;;2.72;100.00;98351.47;5094502;28;20432;-76
2023/02/13 11:43:01;;;;;;;;;;;;;;;2.55;100.00;98356.19;5094032;28;20326;-76
2023/02/13 11:45:27;;;;;;;;;;;;;;;2.42;100.00;98352.91;5094130;28;19972;-76
2023/02/13 11:47:54;;;;;;;;;;;;;;;2.42;100.00;98351.16;5076372;28;19950;-76
2023/02/13 11:50:23;;;;;;;;;;;;;;;2.51;100.00;98352.19;5094120;28;20030;-76
2023/02/13 11:52:52;;;;;;;;;;;;;;;2.57;100.00;98348.31;5094192;28;19961;-76
2023/02/13 11:55:26;;;;;;;;;;;;;;;2.66;100.00;98351.94;5093878;28;19951;-77
2023/02/13 11:57:57;;;;;;;;;;;;;;;2.79;100.00;98350.84;5076331;28;19946;-76
2023/02/13 12:00:36;;;;;;;;;;;;;;;2.88;100.00;98349.31;5093840;28;19957;-76
2023/02/13 12:03:20;;;;;;;;;;;;;;;2.94;100.00;98342.78;5093894;28;20316;-76
2023/02/13 12:06:01;;;;;;;;;;;;;;;3.02;100.00;98335.22;5093858;28;19958;-76
2023/02/13 12:08:28;;;;;;;;;;;;;;;3.14;100.00;98330.81;5093710;28;20299;-75
2023/02/13 12:10:55;;;;;;;;;;;;;;;3.27;100.00;98338.44;5093803;28;20315;-76
2023/02/13 12:13:26;;;;;;;;;;;;;;;3.32;100.00;98331.94;5075857;28;19961;-77
2023/02/13 12:15:58;;;;;;;;;;;;;;;3.38;100.00;98330.59;5093764;28;20323;-76
2023/02/13 12:18:24;;;;;;;;;;;;;;;3.40;100.00;98331.28;5093817;28;19955;-76
2023/02/13 12:20:50;;;;;;;;;;;;;;;3.42;100.00;98334.56;5093640;28;19957;-76
2023/02/13 12:23:22;;;;;;;;;;;;;;;3.54;100.00;98341.34;5093919;28;19950;-76
2023/02/13 12:26:11;;;;;;;;;;;;;;;3.82;100.00;98344.25;5093759;28;19955;-76
2023/02/13 12:28:56;;;;;;;;;;;;;;;4.17;100.00;98341.28;5071069;28;19972;-77
2023/02/13 12:31:29;;;;;;;;;;;;;;;4.55;100.00;98342.38;5082641;28;19959;-76
2023/02/13 12:34:11;;;;;;;;;;;;;;;4.96;100.00;98326.72;5096952;28;20333;-76
2023/02/13 12:36:55;;;;;;;;;;;;;;;5.32;100.00;98319.19;5097947;28;20401;-76
2023/02/13 12:39:27;;;;;;;;;;;;;;;5.53;96.29;98287.81;5085526;28;20428;-76
2023/02/13 12:42:05;;;;;;;;;;;;;;;5.57;95.45;98283.97;5097213;28;19955;-77
2023/02/13 12:44:51;;;;;;;;;;;;;;;5.49;92.48;98266.44;5097715;28;19954;-76
2023/02/13 12:47:19;;;;;;;;;;;;;;;5.30;92.75;98277.69;5097665;28;19964;-76
2023/02/13 12:49:45;;;;;;;;;;;;;;;4.94;93.58;98272.25;5097520;28;20293;-76
2023/02/13 12:52:23;;;;;;;;;;;;;;;4.62;94.86;98285.47;5098367;28;20009;-76
2023/02/13 12:54:57;;;;;;;;;;;;;;;4.54;97.58;98293.97;5097550;28;20417;-76
2023/02/13 12:57:42;;;;;;;;;;;;;;;4.60;96.93;98288.22;5097434;28;20304;-77
2023/02/13 13:00:23;;;;;;;;;;;;;;;4.65;96.66;98280.03;5097296;28;19975;-77
2023/02/13 13:03:07;;;;;;;;;;;;;;;4.58;96.28;98277.16;5083158;28;19948;-76
2023/02/13 13:05:45;;;;;;;;;;;;;;;4.66;97.44;98279.06;5097280;28;19948;-76
2023/02/13 13:08:30;;;;;;;;;;;;;;;4.73;97.33;98279.38;5097116;28;19954;-78
2023/02/13 13:11:14;;;;;;;;;;;;;;;4.84;96.72;98271.41;5079010;28;19968;-77
2023/02/13 13:13:49;;;;;;;;;;;;;;;4.93;95.43;98268.00;5097273;28;20327;-76
2023/02/13 13:16:15;;;;;;;;;;;;;;;4.87;95.62;98265.94;5088045;28;19948;-76
2023/02/13 13:18:47;;;;;;;;;;;;;;;4.88;96.79;98275.41;5096962;28;19962;-76
2023/02/13 13:21:23;;;;;;;;;;;;;;;4.95;96.98;98276.47;5097136;28;19948;-76
2023/02/13 13:23:52;;;;;;;;;;;;;;;5.04;96.03;98267.03;5097078;28;20358;-76
2023/02/13 13:26:20;;;;;;;;;;;;;;;5.02;93.60;98242.97;5097166;28;19942;-76
2023/02/13 13:28:47;;;;;;;;;;;;;;;5.05;96.43;98272.09;5097022;28;19950;-76
2023/02/13 13:31:14;;;;;;;;;;;;;;;5.06;95.80;98265.13;5078732;28;20325;-76
2023/02/13 13:33:41;;;;;;;;;;;;;;;5.15;96.24;98266.91;5096760;28;19952;-76
2023/02/13 13:36:18;;;;;;;;;;;;;;;5.27;96.05;98262.34;5096574;28;19951;-76
2023/02/13 13:38:50;;;;;;;;;;;;;;;5.42;94.77;98258.38;5097031;28;19954;-76